sensor_id;sensor_type;location;lat;lon;timestamp;pressure;altitude;pressure_sealevel;temperature;humidity
41260;BME280;26993;48.958;9.330;2022-12-22T00:01:49;97923.16;;;9.21;93.48
41260;BME280;26993;48.958;9.330;2022-12-22T00:04:54;97926.59;;;9.18;93.60
41260;BME280;26993;48.958;9.330;2022-12-22T00:07:58;97927.44;;;9.16;93.72
41260;BME280;26993;48.958;9.330;2022-12-22T00:11:05;97921.50;;;9.11;93.99
41260;BME280;26993;48.958;9.330;2022-12-22T00:14:13;97920.56;;;9.23;93.29
41260;BME280;26993;48.958;9.330;2022-12-22T00:17:22;97919.72;;;9.20;93.66
41260;BME280;26993;48.958;9.330;2022-12-22T00:20:27;97915.50;;;9.09;93.84
41260;BME280;26993;48.958;9.330;2022-12-22T00:23:32;97911.19;;;9.17;94.21
41260;BME280;26993;48.958;9.330;2022-12-22T00:26:37;97912.94;;;9.02;94.51
41260;BME280;26993;48.958;9.330;2022-12-22T00:29:42;97910.34;;;9.13;93.67
41260;BME280;26993;48.958;9.330;2022-12-22T00:32:47;97903.47;;;9.17;94.03
41260;BME280;26993;48.958;9.330;2022-12-22T00:35:51;97897.53;;;9.05;94.57
41260;BME280;26993;48.958;9.330;2022-12-22T00:38:56;97900.19;;;8.88;95.53
41260;BME280;26993;48.958;9.330;2022-12-22T00:42:01;97885.56;;;9.00;95.37
41260;BME280;26993;48.958;9.330;2022-12-22T00:45:06;97876.97;;;9.07;94.36
41260;BME280;26993;48.958;9.330;2022-12-22T00:48:19;97881.34;;;8.85;95.51
41260;BME280;26993;48.958;9.330;2022-12-22T00:51:24;97886.44;;;8.96;94.83
41260;BME280;26993;48.958;9.330;2022-12-22T00:54:28;97890.72;;;8.94;94.99
41260;BME280;26993;48.958;9.330;2022-12-22T00:57:34;97884.75;;;8.85;95.49
41260;BME280;26993;48.958;9.330;2022-12-22T01:00:38;97880.47;;;8.89;95.36
41260;BME280;26993;48.958;9.330;2022-12-22T01:03:42;97877.84;;;9.00;94.97
41260;BME280;26993;48.958;9.330;2022-12-22T01:06:47;97879.59;;;8.95;95.50
41260;BME280;26993;48.958;9.330;2022-12-22T01:09:51;97884.75;;;8.92;96.03
41260;BME280;26993;48.958;9.330;2022-12-22T01:12:58;97872.78;;;8.80;97.65
41260;BME280;26993;48.958;9.330;2022-12-22T01:16:02;97866.84;;;8.75;98.81
41260;BME280;26993;48.958;9.330;2022-12-22T01:19:06;97877.94;;;8.78;99.41
41260;BME280;26993;48.958;9.330;2022-12-22T01:22:11;97869.41;;;8.73;99.20
41260;BME280;26993;48.958;9.330;2022-12-22T01:25:18;97871.97;;;8.75;99.65
41260;BME280;26993;48.958;9.330;2022-12-22T01:28:24;97879.69;;;8.78;100.00
41260;BME280;26993;48.958;9.330;2022-12-22T01:31:29;97873.66;;;8.80;100.00
41260;BME280;26993;48.958;9.330;2022-12-22T01:34:34;97867.69;;;8.72;100.00
41260;BME280;26993;48.958;9.330;2022-12-22T01:37:38;97867.66;;;8.86;100.00
41260;BME280;26993;48.958;9.330;2022-12-22T01:40:42;97869.34;;;8.87;100.00
41260;BME280;26993;48.958;9.330;2022-12-22T01:43:48;97859.94;;;8.84;100.00
41260;BME280;26993;48.958;9.330;2022-12-22T01:46:52;97856.50;;;8.90;100.00
41260;BME280;26993;48.958;9.330;2022-12-22T01:49:56;97843.63;;;8.92;100.00
41260;BME280;26993;48.958;9.330;2022-12-22T01:53:00;97852.25;;;8.83;100.00
41260;BME280;26993;48.958;9.330;2022-12-22T01:56:06;97844.50;;;8.91;100.00
41260;BME280;26993;48.958;9.330;2022-12-22T01:59:11;97839.38;;;8.87;100.00
41260;BME280;26993;48.958;9.330;2022-12-22T02:02:16;97835.97;;;8.81;100.00
41260;BME280;26993;48.958;9.330;2022-12-22T02:05:21;97831.72;;;8.78;100.00
41260;BME280;26993;48.958;9.330;2022-12-22T02:08:27;97829.22;;;8.66;100.00
41260;BME280;26993;48.958;9.330;2022-12-22T02:11:43;97830.03;;;8.76;100.00
41260;BME280;26993;48.958;9.330;2022-12-22T02:14:57;97827.47;;;8.69;100.00
41260;BME280;26993;48.958;9.330;2022-12-22T02:18:08;97830.84;;;8.76;100.00
41260;BME280;26993;48.958;9.330;2022-12-22T02:21:17;97825.78;;;8.68;100.00
41260;BME280;26993;48.958;9.330;2022-12-22T02:24:27;97819.75;;;8.68;100.00
41260;BME280;26993;48.958;9.330;2022-12-22T02:27:38;97825.72;;;8.76;100.00
41260;BME280;26993;48.958;9.330;2022-12-22T02:30:44;97828.34;;;8.64;100.00
41260;BME280;26993;48.958;9.330;2022-12-22T02:33:49;97822.38;;;8.63;100.00
41260;BME280;26993;48.958;9.330;2022-12-22T02:36:58;97814.66;;;8.66;100.00
41260;BME280;26993;48.958;9.330;2022-12-22T02:40:11;97817.97;;;8.85;100.00
41260;BME280;26993;48.958;9.330;2022-12-22T02:46:48;97813.69;;;8.84;100.00
41260;BME280;26993;48.958;9.330;2022-12-22T02:50:03;97801.69;;;8.91;100.00
41260;BME280;26993;48.958;9.330;2022-12-22T02:53:13;97799.09;;;8.93;100.00
41260;BME280;26993;48.958;9.330;2022-12-22T02:56:18;97794.84;;;8.93;100.00
41260;BME280;26993;48.958;9.330;2022-12-22T02:59:23;97793.91;;;9.07;100.00
41260;BME280;26993;48.958;9.330;2022-12-22T03:02:27;97795.69;;;8.94;100.00
41260;BME280;26993;48.958;9.330;2022-12-22T03:05:31;97785.41;;;8.91;100.00
41260;BME280;26993;48.958;9.330;2022-12-22T03:08:35;97784.56;;;8.92;100.00
41260;BME280;26993;48.958;9.330;2022-12-22T03:11:39;97779.38;;;8.98;100.00
41260;BME280;26993;48.958;9.330;2022-12-22T03:14:45;97786.25;;;8.94;100.00
41260;BME280;26993;48.958;9.330;2022-12-22T03:17:49;97782.72;;;9.12;100.00
41260;BME280;26993;48.958;9.330;2022-12-22T03:20:54;97763.91;;;9.10;100.00
41260;BME280;26993;48.958;9.330;2022-12-22T03:23:58;97762.22;;;9.01;100.00
41260;BME280;26993;48.958;9.330;2022-12-22T03:27:02;97751.88;;;9.11;100.00
41260;BME280;26993;48.958;9.330;2022-12-22T03:29:50;97739.09;;;9.08;100.00
41260;BME280;26993;48.958;9.330;2022-12-22T03:32:37;97725.38;;;9.05;100.00
41260;BME280;26993;48.958;9.330;2022-12-22T03:35:24;97725.41;;;9.01;100.00
41260;BME280;26993;48.958;9.330;2022-12-22T03:38:10;97709.16;;;8.97;100.00
41260;BME280;26993;48.958;9.330;2022-12-22T03:40:57;97709.16;;;9.00;100.00
41260;BME280;26993;48.958;9.330;2022-12-22T03:43:44;97718.56;;;9.00;100.00
41260;BME280;26993;48.958;9.330;2022-12-22T03:46:49;97710.88;;;8.98;100.00
41260;BME280;26993;48.958;9.330;2022-12-22T03:49:36;97707.34;;;9.12;100.00
41260;BME280;26993;48.958;9.330;2022-12-22T03:52:23;97702.19;;;9.15;100.00
41260;BME280;26993;48.958;9.330;2022-12-22T03:55:09;97707.34;;;9.15;100.00
41260;BME280;26993;48.958;9.330;2022-12-22T03:57:56;97709.03;;;9.14;100.00
41260;BME280;26993;48.958;9.330;2022-12-22T04:00:43;97709.94;;;9.09;100.00
41260;BME280;26993;48.958;9.330;2022-12-22T04:03:31;97721.09;;;9.08;100.00
41260;BME280;26993;48.958;9.330;2022-12-22T04:06:18;97724.41;;;9.19;100.00
41260;BME280;26993;48.958;9.330;2022-12-22T04:09:05;97722.69;;;9.21;100.00
41260;BME280;26993;48.958;9.330;2022-12-22T04:11:52;97727.88;;;9.13;100.00
41260;BME280;26993;48.958;9.330;2022-12-22T04:14:56;97727.13;;;8.99;100.00
41260;BME280;26993;48.958;9.330;2022-12-22T04:17:42;97723.69;;;9.03;100.00
41260;BME280;26993;48.958;9.330;2022-12-22T04:20:30;97729.59;;;9.14;100.00
41260;BME280;26993;48.958;9.330;2022-12-22T04:23:17;97724.44;;;9.16;100.00
41260;BME280;26993;48.958;9.330;2022-12-22T04:26:04;97726.19;;;9.14;100.00
41260;BME280;26993;48.958;9.330;2022-12-22T04:28:51;97710.78;;;9.11;100.00
41260;BME280;26993;48.958;9.330;2022-12-22T04:31:38;97715.00;;;9.19;100.00
41260;BME280;26993;48.958;9.330;2022-12-22T04:34:25;97703.84;;;9.22;100.00
41260;BME280;26993;48.958;9.330;2022-12-22T04:37:13;97704.66;;;9.27;100.00
41260;BME280;26993;48.958;9.330;2022-12-22T04:40:00;97702.00;;;9.35;100.00
41260;BME280;26993;48.958;9.330;2022-12-22T04:42:46;97701.19;;;9.31;100.00
41260;BME280;26993;48.958;9.330;2022-12-22T04:45:33;97702.91;;;9.28;100.00
41260;BME280;26993;48.958;9.330;2022-12-22T04:48:19;97698.72;;;9.22;100.00
41260;BME280;26993;48.958;9.330;2022-12-22T04:51:06;97708.06;;;9.28;100.00
41260;BME280;26993;48.958;9.330;2022-12-22T04:53:54;97690.16;;;9.17;100.00
41260;BME280;26993;48.958;9.330;2022-12-22T04:56:41;97691.00;;;9.20;100.00
41260;BME280;26993;48.958;9.330;2022-12-22T04:59:28;97689.31;;;9.18;100.00
41260;BME280;26993;48.958;9.330;2022-12-22T05:02:14;97691.03;;;9.16;100.00
41260;BME280;26993;48.958;9.330;2022-12-22T05:05:01;97688.44;;;9.19;100.00
41260;BME280;26993;48.958;9.330;2022-12-22T05:07:48;97688.53;;;9.11;100.00
41260;BME280;26993;48.958;9.330;2022-12-22T05:10:36;97678.25;;;9.11;100.00
41260;BME280;26993;48.958;9.330;2022-12-22T05:13:22;97671.44;;;9.05;100.00
41260;BME280;26993;48.958;9.330;2022-12-22T05:16:12;97665.50;;;8.96;100.00
41260;BME280;26993;48.958;9.330;2022-12-22T05:19:00;97663.78;;;8.99;100.00
41260;BME280;26993;48.958;9.330;2022-12-22T05:21:46;97670.63;;;8.97;100.00
41260;BME280;26993;48.958;9.330;2022-12-22T05:24:33;97668.06;;;8.94;100.00
41260;BME280;26993;48.958;9.330;2022-12-22T05:27:21;97666.31;;;9.04;100.00
41260;BME280;26993;48.958;9.330;2022-12-22T05:30:09;97664.56;;;9.04;100.00
41260;BME280;26993;48.958;9.330;2022-12-22T05:32:56;97666.25;;;9.10;100.00
41260;BME280;26993;48.958;9.330;2022-12-22T05:35:42;97672.25;;;9.09;100.00
41260;BME280;26993;48.958;9.330;2022-12-22T05:38:29;97669.69;;;9.09;100.00
41260;BME280;26993;48.958;9.330;2022-12-22T05:41:16;97670.59;;;9.02;100.00
41260;BME280;26993;48.958;9.330;2022-12-22T05:44:04;97678.38;;;8.93;100.00
41260;BME280;26993;48.958;9.330;2022-12-22T05:46:51;97672.28;;;9.08;100.00
41260;BME280;26993;48.958;9.330;2022-12-22T05:49:38;97668.72;;;9.21;100.00
41260;BME280;26993;48.958;9.330;2022-12-22T05:52:24;97677.28;;;9.21;100.00
41260;BME280;26993;48.958;9.330;2022-12-22T05:55:12;97668.84;;;9.07;100.00
41260;BME280;26993;48.958;9.330;2022-12-22T05:57:59;97671.28;;;9.23;100.00
41260;BME280;26993;48.958;9.330;2022-12-22T06:00:47;97667.03;;;9.18;100.00
41260;BME280;26993;48.958;9.330;2022-12-22T06:03:34;97659.22;;;9.28;100.00
41260;BME280;26993;48.958;9.330;2022-12-22T06:06:21;97647.19;;;9.34;100.00
41260;BME280;26993;48.958;9.330;2022-12-22T06:09:08;97656.63;;;9.31;100.00
41260;BME280;26993;48.958;9.330;2022-12-22T06:11:54;97663.50;;;9.29;100.00
41260;BME280;26993;48.958;9.330;2022-12-22T06:14:41;97653.28;;;9.26;100.00
41260;BME280;26993;48.958;9.330;2022-12-22T06:17:29;97648.94;;;9.31;100.00
41260;BME280;26993;48.958;9.330;2022-12-22T06:20:16;97656.72;;;9.21;100.00
41260;BME280;26993;48.958;9.330;2022-12-22T06:23:02;97666.94;;;9.28;100.00
41260;BME280;26993;48.958;9.330;2022-12-22T06:25:53;97652.34;;;9.31;100.00
41260;BME280;26993;48.958;9.330;2022-12-22T06:28:40;97650.66;;;9.30;100.00
41260;BME280;26993;48.958;9.330;2022-12-22T06:31:27;97661.06;;;9.16;100.00
41260;BME280;26993;48.958;9.330;2022-12-22T06:34:15;97662.63;;;9.33;100.00
41260;BME280;26993;48.958;9.330;2022-12-22T06:37:02;97661.78;;;9.28;100.00
41260;BME280;26993;48.958;9.330;2022-12-22T06:39:49;97661.03;;;9.19;100.00
41260;BME280;26993;48.958;9.330;2022-12-22T06:42:36;97661.06;;;9.16;100.00
41260;BME280;26993;48.958;9.330;2022-12-22T06:45:41;97665.34;;;9.17;100.00
41260;BME280;26993;48.958;9.330;2022-12-22T06:48:28;97673.03;;;9.17;100.00
41260;BME280;26993;48.958;9.330;2022-12-22T06:51:16;97676.41;;;9.24;100.00
41260;BME280;26993;48.958;9.330;2022-12-22T06:54:03;97667.03;;;9.18;100.00
41260;BME280;26993;48.958;9.330;2022-12-22T06:56:50;97665.28;;;9.20;100.00
41260;BME280;26993;48.958;9.330;2022-12-22T06:59:36;97666.06;;;9.32;100.00
41260;BME280;26993;48.958;9.330;2022-12-22T07:02:23;97666.81;;;9.45;100.00
41260;BME280;26993;48.958;9.330;2022-12-22T07:05:10;97666.03;;;9.33;100.00
41260;BME280;26993;48.958;9.330;2022-12-22T07:07:58;97671.91;;;9.46;100.00
41260;BME280;26993;48.958;9.330;2022-12-22T07:10:45;97672.06;;;9.28;100.00
41260;BME280;26993;48.958;9.330;2022-12-22T07:13:43;97681.63;;;9.16;100.00
41260;BME280;26993;48.958;9.330;2022-12-22T07:16:30;97694.44;;;9.18;100.00
41260;BME280;26993;48.958;9.330;2022-12-22T07:19:17;97697.94;;;9.11;100.00
41260;BME280;26993;48.958;9.330;2022-12-22T07:22:03;97700.50;;;9.11;100.00
41260;BME280;26993;48.958;9.330;2022-12-22T07:24:51;97699.66;;;9.09;100.00
41260;BME280;26993;48.958;9.330;2022-12-22T07:27:40;97691.84;;;9.23;100.00
41260;BME280;26993;48.958;9.330;2022-12-22T07:30:27;97684.91;;;9.31;100.00
41260;BME280;26993;48.958;9.330;2022-12-22T07:33:13;97691.81;;;9.26;100.00
41260;BME280;26993;48.958;9.330;2022-12-22T07:36:04;97689.34;;;9.15;100.00
41260;BME280;26993;48.958;9.330;2022-12-22T07:38:51;97697.00;;;9.18;100.00
41260;BME280;26993;48.958;9.330;2022-12-22T07:41:40;97705.56;;;9.23;100.00
41260;BME280;26993;48.958;9.330;2022-12-22T07:44:44;97714.22;;;9.08;100.00
41260;BME280;26993;48.958;9.330;2022-12-22T07:47:30;97707.31;;;9.16;100.00
41260;BME280;26993;48.958;9.330;2022-12-22T07:50:18;97719.28;;;9.16;100.00
41260;BME280;26993;48.958;9.330;2022-12-22T07:53:12;97718.41;;;9.23;100.00
41260;BME280;26993;48.958;9.330;2022-12-22T07:56:01;97715.78;;;9.29;100.00
41260;BME280;26993;48.958;9.330;2022-12-22T07:58:49;97715.75;;;9.34;100.00
41260;BME280;26993;48.958;9.330;2022-12-22T08:01:36;97722.56;;;9.38;100.00
41260;BME280;26993;48.958;9.330;2022-12-22T08:04:24;97714.91;;;9.32;100.00
41260;BME280;26993;48.958;9.330;2022-12-22T08:07:11;97713.88;;;9.53;98.71
41260;BME280;26993;48.958;9.330;2022-12-22T08:09:57;97701.84;;;9.53;98.73
41260;BME280;26993;48.958;9.330;2022-12-22T08:12:44;97711.28;;;9.51;97.60
41260;BME280;26993;48.958;9.330;2022-12-22T08:15:33;97705.13;;;9.68;96.43
41260;BME280;26993;48.958;9.330;2022-12-22T08:18:19;97693.97;;;9.71;95.06
41260;BME280;26993;48.958;9.330;2022-12-22T08:21:07;97696.38;;;9.83;95.06
41260;BME280;26993;48.958;9.330;2022-12-22T08:23:54;97687.44;;;10.16;93.62
41260;BME280;26993;48.958;9.330;2022-12-22T08:26:43;97690.72;;;10.29;92.48
41260;BME280;26993;48.958;9.330;2022-12-22T08:29:34;97691.63;;;10.25;92.84
41260;BME280;26993;48.958;9.330;2022-12-22T08:32:24;97693.38;;;10.20;92.01
41260;BME280;26993;48.958;9.330;2022-12-22T08:35:11;97698.66;;;10.09;93.09
41260;BME280;26993;48.958;9.330;2022-12-22T08:37:58;97697.03;;;10.05;93.38
41260;BME280;26993;48.958;9.330;2022-12-22T08:40:46;97681.41;;;10.19;92.77
41260;BME280;26993;48.958;9.330;2022-12-22T08:43:34;97702.13;;;10.08;93.99
41260;BME280;26993;48.958;9.330;2022-12-22T08:46:20;97702.31;;;9.93;94.47
41260;BME280;26993;48.958;9.330;2022-12-22T08:49:08;97695.13;;;10.20;93.08
41260;BME280;26993;48.958;9.330;2022-12-22T08:51:55;97702.19;;;10.02;92.99
41260;BME280;26993;48.958;9.330;2022-12-22T08:54:42;97703.88;;;10.06;94.27
41260;BME280;26993;48.958;9.330;2022-12-22T08:57:29;97693.81;;;9.84;95.57
41260;BME280;26993;48.958;9.330;2022-12-22T09:00:16;97692.13;;;9.83;95.48
41260;BME280;26993;48.958;9.330;2022-12-22T09:03:02;97687.81;;;9.86;95.63
41260;BME280;26993;48.958;9.330;2022-12-22T09:05:50;97697.25;;;9.83;95.95
41260;BME280;26993;48.958;9.330;2022-12-22T09:08:37;97695.53;;;9.86;95.55
41260;BME280;26993;48.958;9.330;2022-12-22T09:11:24;97685.13;;;9.96;95.10
41260;BME280;26993;48.958;9.330;2022-12-22T09:14:11;97697.16;;;9.91;95.23
41260;BME280;26993;48.958;9.330;2022-12-22T09:16:58;97689.44;;;9.91;94.86
41260;BME280;26993;48.958;9.330;2022-12-22T09:19:44;97695.53;;;9.86;95.50
41260;BME280;26993;48.958;9.330;2022-12-22T09:22:32;97697.09;;;9.99;94.56
41260;BME280;26993;48.958;9.330;2022-12-22T09:25:19;97688.53;;;9.97;94.50
41260;BME280;26993;48.958;9.330;2022-12-22T09:28:06;97705.59;;;10.04;94.48
41260;BME280;26993;48.958;9.330;2022-12-22T09:30:52;97710.66;;;10.13;95.43
41260;BME280;26993;48.958;9.330;2022-12-22T09:33:39;97708.16;;;10.07;95.64
41260;BME280;26993;48.958;9.330;2022-12-22T09:36:28;97716.94;;;9.88;97.16
41260;BME280;26993;48.958;9.330;2022-12-22T09:39:16;97729.09;;;9.73;97.93
41260;BME280;26993;48.958;9.330;2022-12-22T09:42:03;97727.09;;;9.98;95.11
41260;BME280;26993;48.958;9.330;2022-12-22T09:44:50;97728.19;;;9.77;97.52
41260;BME280;26993;48.958;9.330;2022-12-22T09:47:37;97726.44;;;9.79;96.90
41260;BME280;26993;48.958;9.330;2022-12-22T09:50:25;97736.69;;;9.86;97.22
41260;BME280;26993;48.958;9.330;2022-12-22T09:53:18;97735.03;;;9.77;96.77
41260;BME280;26993;48.958;9.330;2022-12-22T09:56:11;97732.59;;;9.64;98.37
41260;BME280;26993;48.958;9.330;2022-12-22T09:58:59;97738.34;;;9.93;96.89
41260;BME280;26993;48.958;9.330;2022-12-22T10:02:09;97735.06;;;9.78;97.54
41260;BME280;26993;48.958;9.330;2022-12-22T10:05:09;97735.06;;;9.78;97.62
41260;BME280;26993;48.958;9.330;2022-12-22T10:08:01;97733.25;;;9.85;98.58
41260;BME280;26993;48.958;9.330;2022-12-22T10:10:52;97730.97;;;9.57;100.00
41260;BME280;26993;48.958;9.330;2022-12-22T10:13:40;97741.19;;;9.63;100.00
41260;BME280;26993;48.958;9.330;2022-12-22T10:16:27;97736.88;;;9.67;100.00
41260;BME280;26993;48.958;9.330;2022-12-22T10:19:14;97742.06;;;9.61;100.00
41260;BME280;26993;48.958;9.330;2022-12-22T10:22:17;97745.44;;;9.69;100.00
41260;BME280;26993;48.958;9.330;2022-12-22T10:25:08;97753.25;;;9.55;100.00
41260;BME280;26993;48.958;9.330;2022-12-22T10:28:12;97744.69;;;9.56;100.00
41260;BME280;26993;48.958;9.330;2022-12-22T10:31:13;97763.53;;;9.57;100.00
41260;BME280;26993;48.958;9.330;2022-12-22T10:34:10;97763.59;;;9.49;100.00
41260;BME280;26993;48.958;9.330;2022-12-22T10:36:59;97767.06;;;9.46;100.00
41260;BME280;26993;48.958;9.330;2022-12-22T10:39:46;97767.06;;;9.43;100.00
41260;BME280;26993;48.958;9.330;2022-12-22T10:42:34;97763.53;;;9.57;100.00
41260;BME280;26993;48.958;9.330;2022-12-22T10:45:23;97755.91;;;9.47;100.00
41260;BME280;26993;48.958;9.330;2022-12-22T10:48:11;97767.06;;;9.46;100.00
41260;BME280;26993;48.958;9.330;2022-12-22T10:50:59;97766.16;;;9.50;100.00
41260;BME280;26993;48.958;9.330;2022-12-22T10:53:49;97761.97;;;9.37;100.00
41260;BME280;26993;48.958;9.330;2022-12-22T10:56:36;97751.56;;;9.52;100.00
41260;BME280;26993;48.958;9.330;2022-12-22T10:59:23;97760.97;;;9.55;100.00
41260;BME280;26993;48.958;9.330;2022-12-22T11:02:24;97748.06;;;9.61;100.00
41260;BME280;26993;48.958;9.330;2022-12-22T11:05:12;97766.97;;;9.57;100.00
41260;BME280;26993;48.958;9.330;2022-12-22T11:08:02;97751.59;;;9.48;100.00
41260;BME280;26993;48.958;9.330;2022-12-22T11:11:01;97752.41;;;9.56;100.00
41260;BME280;26993;48.958;9.330;2022-12-22T11:13:57;97758.47;;;9.49;100.00
41260;BME280;26993;48.958;9.330;2022-12-22T11:16:50;97746.38;;;9.57;100.00
41260;BME280;26993;48.958;9.330;2022-12-22T11:19:46;97750.59;;;9.66;100.00
41260;BME280;26993;48.958;9.330;2022-12-22T11:22:40;97746.31;;;9.65;100.00
41260;BME280;26993;48.958;9.330;2022-12-22T11:25:39;97752.34;;;9.64;100.00
41260;BME280;26993;48.958;9.330;2022-12-22T11:28:38;97747.03;;;9.78;100.00
41260;BME280;26993;48.958;9.330;2022-12-22T11:31:38;97758.13;;;9.84;100.00
41260;BME280;26993;48.958;9.330;2022-12-22T11:34:41;97753.78;;;9.90;100.00
41260;BME280;26993;48.958;9.330;2022-12-22T11:37:39;97755.50;;;9.91;100.00
41260;BME280;26993;48.958;9.330;2022-12-22T11:40:32;97768.44;;;9.84;100.00
41260;BME280;26993;48.958;9.330;2022-12-22T11:43:24;97771.00;;;9.83;100.00
41260;BME280;26993;48.958;9.330;2022-12-22T11:46:21;97766.63;;;9.93;100.00
41260;BME280;26993;48.958;9.330;2022-12-22T11:49:31;97769.13;;;10.00;99.47
41260;BME280;26993;48.958;9.330;2022-12-22T11:52:34;97758.69;;;10.14;97.66
41260;BME280;26993;48.958;9.330;2022-12-22T11:55:30;97759.38;;;10.29;96.50
41260;BME280;26993;48.958;9.330;2022-12-22T11:58:34;97766.34;;;10.18;97.20
41260;BME280;26993;48.958;9.330;2022-12-22T12:01:37;97760.22;;;10.31;96.26
41260;BME280;26993;48.958;9.330;2022-12-22T12:04:42;97775.69;;;10.28;96.53
41260;BME280;26993;48.958;9.330;2022-12-22T12:07:36;97774.00;;;10.25;97.06
41260;BME280;26993;48.958;9.330;2022-12-22T12:10:26;97774.78;;;10.34;95.93
41260;BME280;26993;48.958;9.330;2022-12-22T12:13:22;97766.91;;;10.47;95.10
41260;BME280;26993;48.958;9.330;2022-12-22T12:16:18;97780.78;;;10.37;94.80
41260;BME280;26993;48.958;9.330;2022-12-22T12:19:34;97784.13;;;10.45;94.52
41260;BME280;26993;48.958;9.330;2022-12-22T12:22:40;97786.56;;;10.55;94.41
41260;BME280;26993;48.958;9.330;2022-12-22T12:25:37;97787.44;;;10.55;94.30
41260;BME280;26993;48.958;9.330;2022-12-22T12:28:35;97791.53;;;10.70;93.72
41260;BME280;26993;48.958;9.330;2022-12-22T12:33:12;97793.38;;;10.60;93.75
41260;BME280;26993;48.958;9.330;2022-12-22T12:36:07;97800.16;;;10.68;93.81
41260;BME280;26993;48.958;9.330;2022-12-22T12:39:03;97790.84;;;10.57;93.72
41260;BME280;26993;48.958;9.330;2022-12-22T12:42:02;97795.84;;;10.70;93.92
41260;BME280;26993;48.958;9.330;2022-12-22T12:44:51;97798.44;;;10.68;93.70
41260;BME280;26993;48.958;9.330;2022-12-22T12:47:38;97802.66;;;10.72;93.18
41260;BME280;26993;48.958;9.330;2022-12-22T12:50:31;97815.44;;;10.80;93.45
41260;BME280;26993;48.958;9.330;2022-12-22T12:53:19;97816.50;;;10.65;94.03
41260;BME280;26993;48.958;9.330;2022-12-22T12:56:07;97817.25;;;10.73;93.84
41260;BME280;26993;48.958;9.330;2022-12-22T12:58:54;97823.25;;;10.74;93.48
41260;BME280;26993;48.958;9.330;2022-12-22T13:02:00;97821.47;;;10.81;93.50
41260;BME280;26993;48.958;9.330;2022-12-22T13:05:12;97823.31;;;10.68;95.08
41260;BME280;26993;48.958;9.330;2022-12-22T13:08:06;97833.78;;;10.55;95.46
41260;BME280;26993;48.958;9.330;2022-12-22T13:11:31;97838.22;;;10.39;97.46
41260;BME280;26993;48.958;9.330;2022-12-22T13:14:55;97844.94;;;10.57;96.67
41260;BME280;26993;48.958;9.330;2022-12-22T13:17:48;97856.91;;;10.60;96.94
41260;BME280;26993;48.958;9.330;2022-12-22T13:20:37;97864.78;;;10.46;98.22
41260;BME280;26993;48.958;9.330;2022-12-22T13:23:27;97856.16;;;10.52;97.36
41260;BME280;26993;48.958;9.330;2022-12-22T13:26:16;97858.03;;;10.37;98.68
41260;BME280;26993;48.958;9.330;2022-12-22T13:29:08;97861.41;;;10.41;98.07
41260;BME280;26993;48.958;9.330;2022-12-22T13:32:03;97856.88;;;10.61;97.83
41260;BME280;26993;48.958;9.330;2022-12-22T13:35:03;97866.47;;;10.48;98.21
41260;BME280;26993;48.958;9.330;2022-12-22T13:37:51;97873.28;;;10.57;98.41
41260;BME280;26993;48.958;9.330;2022-12-22T13:40:41;97881.00;;;10.57;97.97
41260;BME280;26993;48.958;9.330;2022-12-22T13:43:29;97878.56;;;10.43;97.85
41260;BME280;26993;48.958;9.330;2022-12-22T13:46:17;97883.50;;;10.62;98.21
41260;BME280;26993;48.958;9.330;2022-12-22T13:49:07;97888.66;;;10.60;98.45
41260;BME280;26993;48.958;9.330;2022-12-22T13:51:55;97883.50;;;10.62;97.85
41260;BME280;26993;48.958;9.330;2022-12-22T13:54:44;97891.28;;;10.57;97.55
41260;BME280;26993;48.958;9.330;2022-12-22T13:57:32;97891.19;;;10.65;97.53
41260;BME280;26993;48.958;9.330;2022-12-22T14:00:21;97889.41;;;10.72;97.50
41260;BME280;26993;48.958;9.330;2022-12-22T14:03:12;97892.03;;;10.67;98.14
41260;BME280;26993;48.958;9.330;2022-12-22T14:05:59;97902.34;;;10.67;97.88
41260;BME280;26993;48.958;9.330;2022-12-22T14:08:47;97898.09;;;10.65;98.55
41260;BME280;26993;48.958;9.330;2022-12-22T14:11:33;97900.78;;;10.52;99.39
41260;BME280;26993;48.958;9.330;2022-12-22T14:14:24;97910.16;;;10.58;99.48
41260;BME280;26993;48.958;9.330;2022-12-22T14:17:21;97906.75;;;10.56;99.25
41260;BME280;26993;48.958;9.330;2022-12-22T14:20:15;97903.31;;;10.54;100.00
41260;BME280;26993;48.958;9.330;2022-12-22T14:23:05;97903.19;;;10.68;99.41
41260;BME280;26993;48.958;9.330;2022-12-22T14:25:54;97902.47;;;10.56;98.93
41260;BME280;26993;48.958;9.330;2022-12-22T14:28:45;97911.94;;;10.51;99.09
41260;BME280;26993;48.958;9.330;2022-12-22T14:31:52;97912.84;;;10.47;99.59
41260;BME280;26993;48.958;9.330;2022-12-22T14:34:39;97910.22;;;10.53;97.82
41260;BME280;26993;48.958;9.330;2022-12-22T14:37:26;97913.59;;;10.57;98.00
41260;BME280;26993;48.958;9.330;2022-12-22T14:40:26;97905.94;;;10.51;97.25
41260;BME280;26993;48.958;9.330;2022-12-22T14:43:26;97904.31;;;10.36;98.04
41260;BME280;26993;48.958;9.330;2022-12-22T14:46:17;97911.13;;;10.47;97.38
41260;BME280;26993;48.958;9.330;2022-12-22T14:49:11;97912.06;;;10.36;97.31
41260;BME280;26993;48.958;9.330;2022-12-22T14:52:05;97916.31;;;10.43;97.41
41260;BME280;26993;48.958;9.330;2022-12-22T14:54:53;97919.69;;;10.50;96.11
41260;BME280;26993;48.958;9.330;2022-12-22T14:57:41;97924.78;;;10.54;96.13
41260;BME280;26993;48.958;9.330;2022-12-22T15:00:32;97931.69;;;10.52;96.17
41260;BME280;26993;48.958;9.330;2022-12-22T15:03:29;97926.56;;;10.47;95.39
41260;BME280;26993;48.958;9.330;2022-12-22T15:06:23;97934.28;;;10.51;95.51
41260;BME280;26993;48.958;9.330;2022-12-22T15:09:25;97934.28;;;10.47;94.83
41260;BME280;26993;48.958;9.330;2022-12-22T15:12:15;97934.50;;;10.23;96.37
41260;BME280;26993;48.958;9.330;2022-12-22T15:15:04;97935.22;;;10.43;95.56
41260;BME280;26993;48.958;9.330;2022-12-22T15:17:56;97932.59;;;10.48;95.52
41260;BME280;26993;48.958;9.330;2022-12-22T15:20:43;97931.03;;;10.27;96.22
41260;BME280;26993;48.958;9.330;2022-12-22T15:23:31;97931.81;;;10.32;96.46
41260;BME280;26993;48.958;9.330;2022-12-22T15:26:18;97942.19;;;10.26;96.74
41260;BME280;26993;48.958;9.330;2022-12-22T15:29:05;97944.81;;;10.23;97.14